createdAt,value
2023-01-19T00:00:11.833Z,-2.49
2023-01-19T00:01:24.111Z,-2.45
2023-01-19T00:02:25.777Z,-2.46
2023-01-19T00:03:27.402Z,-2.44
2023-01-19T00:04:28.955Z,-2.42
2023-01-19T00:05:30.873Z,-2.42
2023-01-19T00:06:32.839Z,-2.45
2023-01-19T00:07:34.990Z,-2.47
2023-01-19T00:08:37.122Z,-2.46
2023-01-19T00:09:46.145Z,-2.47
2023-01-19T00:10:51.168Z,-2.46
2023-01-19T00:11:52.714Z,-2.48
2023-01-19T00:12:54.245Z,-2.48
2023-01-19T00:13:55.892Z,-2.49
2023-01-19T00:14:58.787Z,-2.52
2023-01-19T00:16:00.352Z,-2.54
2023-01-19T00:17:01.904Z,-2.58
2023-01-19T00:18:04.293Z,-2.61
2023-01-19T00:19:05.774Z,-2.63
2023-01-19T00:20:08.902Z,-2.65
2023-01-19T00:21:10.890Z,-2.65
2023-01-19T00:22:12.424Z,-2.63
2023-01-19T00:23:15.921Z,-2.58
2023-01-19T00:24:19.193Z,-2.57
2023-01-19T00:25:20.662Z,-2.53
2023-01-19T00:26:22.369Z,-2.50
2023-01-19T00:27:24.815Z,-2.49
2023-01-19T00:28:26.375Z,-2.43
2023-01-19T00:29:30.735Z,-2.41
2023-01-19T00:30:32.203Z,-2.36
2023-01-19T00:31:36.192Z,-2.33
2023-01-19T00:32:37.803Z,-2.29
2023-01-19T00:33:39.269Z,-2.26
2023-01-19T00:34:49.205Z,-2.25
2023-01-19T00:35:52.839Z,-2.24
2023-01-19T00:36:54.399Z,-2.23
2023-01-19T00:37:57.039Z,-2.21
2023-01-19T00:38:58.915Z,-2.20
2023-01-19T00:40:00.419Z,-2.17
2023-01-19T00:41:01.930Z,-2.15
2023-01-19T00:42:22.789Z,-2.12
2023-01-19T00:43:24.318Z,-2.08
2023-01-19T00:44:25.788Z,-2.05
2023-01-19T00:45:27.410Z,-1.99
2023-01-19T00:46:28.925Z,-1.97
2023-01-19T00:47:32.035Z,-1.95
2023-01-19T00:48:33.516Z,-1.92
2023-01-19T00:49:34.961Z,-1.88
2023-01-19T00:50:36.456Z,-1.86
2023-01-19T00:51:38.164Z,-1.83
2023-01-19T00:52:44.393Z,-1.83
2023-01-19T00:53:45.913Z,-1.81
2023-01-19T00:54:47.455Z,-1.80
2023-01-19T00:55:48.919Z,-1.79
2023-01-19T00:56:50.425Z,-1.77
2023-01-19T00:57:51.935Z,-1.74
2023-01-19T00:58:53.423Z,-1.72
2023-01-19T00:59:54.992Z,-1.74
2023-01-19T01:01:03.373Z,-1.73
2023-01-19T01:02:05.483Z,-1.70
2023-01-19T01:03:07.242Z,-1.72
2023-01-19T01:04:08.879Z,-1.71
2023-01-19T01:05:11.764Z,-1.71
2023-01-19T01:06:13.604Z,-1.67
2023-01-19T01:07:15.089Z,-1.65
2023-01-19T01:08:16.552Z,-1.59
2023-01-19T01:09:18.048Z,-1.59
2023-01-19T01:10:25.767Z,-1.59
2023-01-19T01:11:27.268Z,-1.55
2023-01-19T01:12:29.356Z,-1.52
2023-01-19T01:13:31.461Z,-1.50
2023-01-19T01:14:33.471Z,-1.42
2023-01-19T01:15:34.970Z,-1.41
2023-01-19T01:16:36.553Z,-1.39
2023-01-19T01:17:47.064Z,-1.38
2023-01-19T01:18:48.539Z,-1.37
2023-01-19T01:19:50.409Z,-1.36
2023-01-19T01:20:52.749Z,-1.35
2023-01-19T01:21:55.685Z,-1.35
2023-01-19T01:22:57.786Z,-1.39
2023-01-19T01:23:59.431Z,-1.45
2023-01-19T01:25:00.921Z,-1.51
2023-01-19T01:26:02.401Z,-1.58
2023-01-19T01:27:03.883Z,-1.68
2023-01-19T01:28:08.630Z,-1.77
2023-01-19T01:29:10.145Z,-1.85
2023-01-19T01:30:14.225Z,-1.92
2023-01-19T01:31:15.777Z,-1.98
2023-01-19T01:32:17.401Z,-2.05
2023-01-19T01:33:41.302Z,-2.11
2023-01-19T01:34:41.296Z,-2.16
2023-01-19T01:35:42.778Z,-2.19
2023-01-19T01:36:44.289Z,-2.20
2023-01-19T01:37:45.906Z,-2.15
2023-01-19T01:38:47.364Z,-2.10
2023-01-19T01:39:48.821Z,-1.93
2023-01-19T01:40:50.688Z,-1.79
2023-01-19T01:41:52.194Z,-1.76
2023-01-19T01:42:57.902Z,-1.76
2023-01-19T01:44:01.687Z,-1.70
2023-01-19T01:45:30.675Z,-1.64
2023-01-19T01:46:33.091Z,-1.59
2023-01-19T01:47:44.225Z,-1.55
2023-01-19T01:48:55.311Z,-1.50
2023-01-19T01:50:10.947Z,-1.47
2023-01-19T01:51:24.472Z,-1.43
2023-01-19T01:52:29.466Z,-1.41
2023-01-19T01:53:34.526Z,-1.38
2023-01-19T01:54:36.477Z,-1.34
2023-01-19T01:55:45.752Z,-1.32
2023-01-19T01:56:51.775Z,-1.29
2023-01-19T01:57:58.223Z,-1.26
2023-01-19T01:59:05.961Z,-1.24
2023-01-19T02:00:08.570Z,-1.21
2023-01-19T02:01:30.081Z,-1.18
2023-01-19T02:02:51.058Z,-1.17
2023-01-19T02:03:54.381Z,-1.16
2023-01-19T02:05:06.350Z,-1.12
2023-01-19T02:06:09.870Z,-1.08
2023-01-19T02:07:39.164Z,-1.03
2023-01-19T02:09:21.708Z,-1.04
2023-01-19T23:19:17.039Z,-0.44
2023-01-19T23:20:19.649Z,-0.45
2023-01-19T23:21:23.670Z,-0.42
2023-01-19T23:22:25.493Z,-0.41
2023-01-19T23:23:26.956Z,-0.41
2023-01-19T23:24:28.393Z,-0.41
2023-01-19T23:25:31.755Z,-0.42
2023-01-19T23:26:38.256Z,-0.43
2023-01-19T23:27:39.939Z,-0.45
2023-01-19T23:28:42.230Z,-0.46
2023-01-19T23:29:43.875Z,-0.38
2023-01-19T23:30:45.560Z,-0.39
2023-01-19T23:31:49.320Z,-0.41
2023-01-19T23:32:51.055Z,-0.38
2023-01-19T23:33:58.407Z,-0.37
2023-01-19T23:34:59.789Z,-0.35
2023-01-19T23:36:01.232Z,-0.34
2023-01-19T23:37:02.876Z,-0.32
2023-01-19T23:38:04.403Z,-0.25
2023-01-19T23:39:18.675Z,-0.23
2023-01-19T23:40:20.197Z,-0.20
2023-01-19T23:41:22.828Z,-0.18
2023-01-19T23:42:24.546Z,-0.11
2023-01-19T23:43:26.075Z,-0.05
2023-01-19T23:44:27.553Z,0.01
2023-01-19T23:45:29.047Z,0.04
2023-01-19T23:46:31.293Z,0.12
2023-01-19T23:47:36.511Z,0.16
2023-01-19T23:48:38.512Z,0.17
2023-01-19T23:49:40.145Z,0.17
2023-01-19T23:50:41.719Z,0.16
2023-01-19T23:51:43.216Z,0.13
2023-01-19T23:52:44.682Z,0.16
2023-01-19T23:53:47.156Z,0.14
2023-01-19T23:54:48.795Z,0.06
2023-01-19T23:55:50.320Z,0.08
2023-01-19T23:56:51.773Z,0.12
2023-01-19T23:57:53.244Z,0.13
2023-01-19T23:58:59.444Z,0.12
